Time;durP1;ratioP1;P1;durP2;ratioP2;P2;SDS_P1;SDS_P2;PMS_P1;PMS_P2;Temp;Humidity;BMP_temperature;BMP_pressure;BME280_temperature;BME280_humidity;BME280_pressure;Samples;Min_cycle;Max_cycle;Signal;HPM_P1;HPM_P2
2024/01/09 00:00:34;;;;;;;9.30;5.50;;;;;;;-12.13;100.00;101483.54;105783;1257;63916;-75
2024/01/09 00:03:01;;;;;;;8.60;5.70;;;;;;;-12.15;100.00;101491.02;105865;1253;72673;-73
2024/01/09 00:05:30;;;;;;;6.50;4.80;;;;;;;-12.15;100.00;101496.77;105721;1258;61514;-74
2024/01/09 00:07:57;;;;;;;6.60;5.00;;;;;;;-12.15;100.00;101496.77;105740;1258;60467;-74
2024/01/09 00:10:25;;;;;;;6.90;5.30;;;;;;;-12.16;100.00;101502.95;105702;1253;73841;-74
2024/01/09 00:12:52;;;;;;;9.70;5.80;;;;;;;-12.18;100.00;101495.09;105677;1253;62295;-74
2024/01/09 00:15:19;;;;;;;11.90;6.20;;;;;;;-12.17;100.00;101493.96;105686;1253;72658;-75
2024/01/09 00:17:45;;;;;;;13.00;5.10;;;;;;;-12.14;100.00;101496.65;105788;1257;61982;-74
2024/01/09 00:20:12;;;;;;;9.50;5.30;;;;;;;-12.11;100.00;101490.38;105771;1253;60562;-74
2024/01/09 00:22:41;;;;;;;10.60;5.40;;;;;;;-12.12;100.00;101493.20;105561;1253;72698;-74
2024/01/09 00:25:09;;;;;;;6.50;4.70;;;;;;;-12.14;100.00;101494.29;105654;1257;63902;-75
2024/01/09 00:27:36;;;;;;;6.80;4.60;;;;;;;-12.13;100.00;101499.39;105630;1258;72004;-75
2024/01/09 00:30:04;;;;;;;10.40;5.80;;;;;;;-12.14;100.00;101508.30;105589;1257;61762;-74
2024/01/09 00:32:32;;;;;;;8.80;5.10;;;;;;;-12.14;100.00;101509.63;105681;1253;60442;-74
2024/01/09 00:34:59;;;;;;;6.90;5.10;;;;;;;-12.14;100.00;101521.21;105654;1257;73866;-74
2024/01/09 00:37:26;;;;;;;13.00;6.70;;;;;;;-12.16;100.00;101528.39;105710;1258;63987;-72
2024/01/09 00:39:54;;;;;;;8.20;5.60;;;;;;;-12.14;100.00;101523.23;105656;1253;72626;-75
2024/01/09 00:42:21;;;;;;;7.60;5.70;;;;;;;-12.12;100.00;101521.00;105640;1253;60494;-75
2024/01/09 00:44:48;;;;;;;10.50;5.20;;;;;;;-12.17;100.00;101530.88;105592;1252;60557;-74
2024/01/09 00:47:14;;;;;;;7.20;4.90;;;;;;;-12.22;100.00;101539.21;105626;1253;72633;-75
2024/01/09 00:49:45;;;;;;;13.90;6.10;;;;;;;-12.24;100.00;101543.86;105559;1256;63887;-74
2024/01/09 00:52:13;;;;;;;11.20;5.80;;;;;;;-12.28;100.00;101544.36;105665;1257;71220;-74
2024/01/09 00:54:43;;;;;;;9.90;5.50;;;;;;;-12.32;100.00;101544.48;105763;1258;62834;-74
2024/01/09 00:57:10;;;;;;;6.70;5.60;;;;;;;-12.34;100.00;101553.49;105646;1253;60423;-74
2024/01/09 00:59:37;;;;;;;12.90;6.40;;;;;;;-12.37;100.00;101556.58;105608;1259;73828;-74
2024/01/09 01:02:04;;;;;;;7.60;5.00;;;;;;;-12.37;100.00;101555.35;105629;1257;63691;-75
2024/01/09 01:04:31;;;;;;;9.50;5.00;;;;;;;-12.38;100.00;101552.98;105654;1253;72618;-74
2024/01/09 01:06:59;;;;;;;7.80;5.50;;;;;;;-12.36;100.00;101557.27;105765;1257;62720;-75
2024/01/09 01:09:26;;;;;;;8.70;5.90;;;;;;;-12.32;100.00;101558.79;105810;1253;60442;-75
2024/01/09 01:11:53;;;;;;;10.40;6.90;;;;;;;-12.31;100.00;101558.68;105602;1253;205527;-73
2024/01/09 01:15:38;;;;;;;9.60;5.80;;;;;;;-12.24;100.00;101571.15;102791;1290;600546;-75
2024/01/09 01:18:05;;;;;;;10.60;6.60;;;;;;;-12.25;100.00;101575.30;105012;1267;61233;-73
2024/01/09 01:20:33;;;;;;;10.50;7.80;;;;;;;-12.27;100.00;101579.41;104881;1272;59503;-75
2024/01/09 01:23:00;;;;;;;11.70;6.60;;;;;;;-12.30;100.00;101579.30;104907;1264;71303;-75
2024/01/09 01:25:28;;;;;;;16.30;6.80;;;;;;;-12.30;100.00;101582.98;105142;1269;63848;-75
2024/01/09 01:27:56;;;;;;;11.10;6.50;;;;;;;-12.30;100.00;101592.77;104853;1266;73641;-75
2024/01/09 01:30:25;;;;;;;11.50;6.60;;;;;;;-12.34;100.00;101594.09;104843;1269;176829;-73
2024/01/09 01:32:53;;;;;;;9.90;6.30;;;;;;;-12.36;100.00;101596.01;105116;1266;59354;-74
2024/01/09 01:35:20;;;;;;;11.70;7.10;;;;;;;-12.40;100.00;101605.42;108811;1264;71163;-73
2024/01/09 01:37:48;;;;;;;10.00;6.50;;;;;;;-12.47;100.00;101595.15;108869;1262;63943;-72
2024/01/09 01:40:16;;;;;;;9.60;6.60;;;;;;;-12.56;100.00;101608.86;108980;1259;72671;-74
2024/01/09 01:42:43;;;;;;;8.30;6.40;;;;;;;-12.60;100.00;101613.88;109008;1259;62573;-73
2024/01/09 01:45:17;;;;;;;10.10;6.90;;;;;;;-12.59;100.00;101617.43;109020;1260;58810;-73
2024/01/09 01:47:45;;;;;;;11.00;6.80;;;;;;;-12.57;100.00;101625.98;109017;1259;73070;-74
2024/01/09 01:50:14;;;;;;;11.00;6.20;;;;;;;-12.58;100.00;101628.64;109004;1260;62742;-74
2024/01/09 01:52:42;;;;;;;10.90;6.60;;;;;;;-12.56;100.00;101640.84;108979;1259;71232;-73
2024/01/09 01:55:10;;;;;;;10.20;6.60;;;;;;;-12.55;100.00;101643.77;109294;1255;62287;-72
2024/01/09 01:57:38;;;;;;;11.80;6.40;;;;;;;-12.54;100.00;101643.14;109218;1256;58763;-73
2024/01/09 02:00:07;;;;;;;14.00;6.20;;;;;;;-12.51;100.00;101641.77;109118;1256;70940;-73
2024/01/09 02:02:37;;;;;;;10.50;6.60;;;;;;;-12.48;100.00;101651.69;109412;1253;63574;-74
2024/01/09 02:05:05;;;;;;;11.60;5.90;;;;;;;-12.48;100.00;101655.36;109325;1253;72621;-74
2024/01/09 02:07:33;;;;;;;10.10;6.70;;;;;;;-12.50;100.00;101658.81;109197;1254;62608;-74
2024/01/09 02:10:02;;;;;;;15.80;7.40;;;;;;;-12.49;100.00;101662.58;109477;1253;58739;-75
2024/01/09 02:12:30;;;;;;;14.80;7.10;;;;;;;-12.45;100.00;101661.79;109467;1254;71974;-75
2024/01/09 02:14:57;;;;;;;12.90;6.00;;;;;;;-12.38;100.00;101662.27;109339;1253;62263;-73
2024/01/09 02:17:25;;;;;;;14.10;6.90;;;;;;;-12.34;100.00;101660.45;109453;1253;72681;-73
2024/01/09 02:19:58;;;;;;;8.80;6.10;;;;;;;-12.37;100.00;101649.02;109511;1253;61584;-73
2024/01/09 02:22:25;;;;;;;18.00;6.20;;;;;;;-12.38;100.00;101654.69;109321;1253;59980;-73
2024/01/09 02:24:53;;;;;;;11.30;6.60;;;;;;;-12.39;100.00;101652.48;109500;1253;71842;-74
2024/01/09 02:27:26;;;;;;;11.10;5.50;;;;;;;-12.40;100.00;101654.97;109494;1253;63574;-74
2024/01/09 02:29:54;;;;;;;8.00;6.00;;;;;;;-12.39;100.00;101657.02;109456;1253;72716;-74
2024/01/09 02:32:22;;;;;;;13.60;6.50;;;;;;;-12.35;100.00;101664.50;109411;1254;61237;-74
2024/01/09 02:34:49;;;;;;;12.60;6.00;;;;;;;-12.31;100.00;101666.35;109307;1253;60221;-74
2024/01/09 02:37:17;;;;;;;8.40;5.60;;;;;;;-12.30;100.00;101663.85;109343;1253;72917;-75
2024/01/09 02:39:44;;;;;;;9.00;6.30;;;;;;;-12.29;100.00;101659.00;109440;1253;62241;-73
2024/01/09 02:42:13;;;;;;;10.20;6.90;;;;;;;-12.29;100.00;101659.38;109482;1253;72725;-74
2024/01/09 02:44:40;;;;;;;9.80;7.40;;;;;;;-12.29;100.00;101669.80;109446;1256;61203;-74
2024/01/09 02:47:08;;;;;;;10.10;6.20;;;;;;;-12.27;100.00;101667.55;109483;1253;59984;-73
2024/01/09 02:49:36;;;;;;;8.70;5.70;;;;;;;-12.23;100.00;101675.14;109454;1253;72063;-74
2024/01/09 02:52:04;;;;;;;8.70;5.60;;;;;;;-12.20;100.00;101678.03;109479;1254;63839;-74
2024/01/09 02:54:32;;;;;;;15.40;5.60;;;;;;;-12.19;100.00;101684.96;109281;1253;72662;-73
2024/01/09 02:57:00;;;;;;;14.00;6.40;;;;;;;-12.24;100.00;101690.42;109417;1253;62479;-73
2024/01/09 02:59:28;;;;;;;7.90;6.50;;;;;;;-12.29;100.00;101690.89;109698;1251;58981;-72
2024/01/09 03:01:55;;;;;;;9.80;6.10;;;;;;;-12.27;100.00;101696.17;109629;1250;73086;-73
2024/01/09 03:04:24;;;;;;;12.20;5.70;;;;;;;-12.32;100.00;101700.16;109754;1251;62393;-74
2024/01/09 03:06:51;;;;;;;8.00;5.50;;;;;;;-12.34;100.00;101700.91;109684;1250;73094;-73
2024/01/09 03:09:19;;;;;;;10.70;6.10;;;;;;;-12.36;100.00;101703.67;109592;1251;61874;-74
2024/01/09 03:11:46;;;;;;;8.20;5.50;;;;;;;-12.38;100.00;101711.27;109706;1249;58860;-73
2024/01/09 03:14:13;;;;;;;9.20;5.70;;;;;;;-12.45;100.00;101712.48;109633;1249;71587;-73
2024/01/09 03:16:41;;;;;;;12.30;6.10;;;;;;;-12.49;100.00;101707.55;109720;1250;62760;-74
2024/01/09 03:19:09;;;;;;;8.10;6.40;;;;;;;-12.50;100.00;101713.55;109664;1251;72501;-74
2024/01/09 03:21:36;;;;;;;8.60;5.90;;;;;;;-12.48;100.00;101714.98;109618;1251;62491;-75
2024/01/09 03:24:04;;;;;;;12.70;6.10;;;;;;;-12.48;100.00;101716.20;109666;1250;59129;-74
2024/01/09 03:26:32;;;;;;;13.20;7.40;;;;;;;-12.46;100.00;101718.64;109668;1251;72482;-75
2024/01/09 03:29:02;;;;;;;12.80;6.00;;;;;;;-12.45;100.00;101724.57;109677;1250;62408;-74
2024/01/09 03:31:30;;;;;;;11.00;5.50;;;;;;;-12.45;100.00;101728.48;109693;1251;71694;-74
2024/01/09 03:33:57;;;;;;;6.80;5.60;;;;;;;-12.48;100.00;101737.05;109808;1251;61566;-74
2024/01/09 03:36:26;;;;;;;14.50;7.10;;;;;;;-12.53;100.00;101738.53;109895;1250;60947;-74
2024/01/09 03:38:55;;;;;;;9.90;6.10;;;;;;;-12.58;100.00;101748.69;109894;1250;74057;-75
2024/01/09 03:41:23;;;;;;;10.00;5.60;;;;;;;-12.60;100.00;101752.32;109826;1251;63623;-76
2024/01/09 03:43:50;;;;;;;8.80;5.20;;;;;;;-12.62;100.00;101754.56;109836;1251;73241;-74
2024/01/09 03:46:18;;;;;;;8.60;5.70;;;;;;;-12.65;100.00;101764.30;109743;1251;61274;-73
2024/01/09 03:48:45;;;;;;;9.70;6.80;;;;;;;-12.65;100.00;101761.94;109770;1250;60012;-74
2024/01/09 03:51:13;;;;;;;11.00;7.20;;;;;;;-12.65;100.00;101762.63;109637;1250;71802;-73
2024/01/09 03:53:40;;;;;;;9.00;6.80;;;;;;;-12.68;100.00;101777.30;109624;1250;63818;-74
2024/01/09 03:56:08;;;;;;;9.80;5.40;;;;;;;-12.73;100.00;101784.30;109641;1249;72686;-73
2024/01/09 03:58:36;;;;;;;11.20;6.80;;;;;;;-12.77;100.00;101783.23;109679;1249;62436;-73
2024/01/09 04:01:04;;;;;;;8.50;5.30;;;;;;;-12.79;100.00;101784.64;109687;1251;59987;-74
2024/01/09 04:03:31;;;;;;;14.90;7.40;;;;;;;-12.78;100.00;101790.58;109705;1249;71742;-72
2024/01/09 04:05:59;;;;;;;10.10;6.30;;;;;;;-12.77;100.00;101788.31;109677;1256;62889;-73
2024/01/09 04:08:26;;;;;;;12.60;7.40;;;;;;;-12.74;100.00;101789.25;109606;1250;72076;-75
2024/01/09 04:10:56;;;;;;;16.70;7.10;;;;;;;-12.73;100.00;101798.94;109581;1250;62554;-75
2024/01/09 04:13:24;;;;;;;12.30;7.70;;;;;;;-12.72;100.00;101799.32;109658;1250;58760;-73
2024/01/09 04:15:51;;;;;;;12.50;7.10;;;;;;;-12.71;100.00;101802.23;109658;1250;73048;-73
2024/01/09 04:18:19;;;;;;;11.00;7.70;;;;;;;-12.75;100.00;101807.95;109728;1251;64905;-73
2024/01/09 04:20:47;;;;;;;13.70;7.30;;;;;;;-12.74;100.00;101813.00;109599;1251;72806;-74
2024/01/09 04:23:19;;;;;;;12.40;6.60;;;;;;;-12.73;100.00;101819.16;109581;1250;62263;-74
2024/01/09 04:25:46;;;;;;;8.50;5.90;;;;;;;-12.75;100.00;101822.21;109798;1250;58718;-73
2024/01/09 04:28:14;;;;;;;19.70;6.70;;;;;;;-12.85;100.00;101825.20;109784;1250;73052;-73
2024/01/09 04:30:43;;;;;;;13.20;6.50;;;;;;;-12.94;100.00;101827.91;109684;1251;62917;-74
2024/01/09 04:33:11;;;;;;;14.40;6.10;;;;;;;-12.97;100.00;101822.91;109640;1250;72316;-73
2024/01/09 04:35:38;;;;;;;13.60;6.80;;;;;;;-12.96;100.00;101825.49;109653;1250;61201;-73
2024/01/09 04:38:06;;;;;;;12.00;6.00;;;;;;;-12.97;100.00;101825.08;109660;1249;58081;-74
2024/01/09 04:40:33;;;;;;;8.10;5.10;;;;;;;-12.98;100.00;101826.90;109783;1251;73036;-70
2024/01/09 04:43:01;;;;;;;14.20;6.80;;;;;;;-13.01;100.00;101825.20;110116;1251;62354;-75
2024/01/09 04:45:29;;;;;;;12.20;7.10;;;;;;;-13.05;100.00;101827.16;109595;1250;72590;-74
2024/01/09 04:47:57;;;;;;;11.90;8.00;;;;;;;-13.03;100.00;101830.27;109643;1255;62514;-73
2024/01/09 04:50:24;;;;;;;10.90;5.80;;;;;;;-13.05;100.00;101839.60;109677;1249;58047;-75
2024/01/09 04:52:52;;;;;;;8.30;6.60;;;;;;;-13.12;100.00;101836.68;109633;1250;71947;-75
2024/01/09 04:55:20;;;;;;;7.00;5.30;;;;;;;-13.19;100.00;101840.36;109689;1250;63707;-75
2024/01/09 04:57:47;;;;;;;13.50;7.40;;;;;;;-13.22;100.00;101843.21;109597;1251;71420;-76
2024/01/09 05:00:18;;;;;;;10.30;5.70;;;;;;;-13.24;100.00;101847.80;109557;1254;61337;-75
2024/01/09 05:02:45;;;;;;;8.90;5.70;;;;;;;-13.26;100.00;101852.57;109663;1251;62014;-75
2024/01/09 05:05:14;;;;;;;17.70;6.00;;;;;;;-13.27;100.00;101850.49;109724;1250;74179;-74
2024/01/09 05:07:44;;;;;;;10.30;5.30;;;;;;;-13.28;100.00;101851.32;109717;1251;62216;-75
2024/01/09 05:10:12;;;;;;;12.80;6.60;;;;;;;-13.27;100.00;101854.17;109616;1250;71403;-75
2024/01/09 05:12:39;;;;;;;6.80;5.90;;;;;;;-13.30;100.00;101862.99;109634;1251;61638;-74
2024/01/09 05:15:08;;;;;;;10.20;5.80;;;;;;;-13.35;100.00;101870.11;109726;1251;58736;-75
2024/01/09 05:17:35;;;;;;;13.70;5.60;;;;;;;-13.41;100.00;101879.01;109632;1251;70812;-76
2024/01/09 05:20:04;;;;;;;10.00;5.50;;;;;;;-13.45;100.00;101883.68;109693;1251;62270;-75
2024/01/09 05:22:35;;;;;;;14.90;7.50;;;;;;;-13.51;100.00;101881.63;109644;1250;72762;-76
2024/01/09 05:25:03;;;;;;;10.50;6.30;;;;;;;-13.53;100.00;101885.56;109655;1251;63074;-75
2024/01/09 05:27:30;;;;;;;15.30;5.90;;;;;;;-13.51;100.00;101886.98;109649;1251;60038;-74
2024/01/09 05:29:58;;;;;;;13.30;7.10;;;;;;;-13.50;100.00;101892.44;109683;1256;75021;-75
2024/01/09 05:32:26;;;;;;;16.80;7.60;;;;;;;-13.49;100.00;101901.06;109627;1250;62557;-75
2024/01/09 05:34:55;;;;;;;11.80;6.40;;;;;;;-13.51;100.00;101904.49;109619;1251;71435;-74
2024/01/09 05:37:23;;;;;;;10.40;6.80;;;;;;;-13.55;100.00;101907.60;109619;1254;62453;-75
2024/01/09 05:39:51;;;;;;;13.40;7.40;;;;;;;-13.55;100.00;101904.94;109664;1249;58762;-74
2024/01/09 05:42:19;;;;;;;10.80;6.60;;;;;;;-13.53;100.00;101912.77;109658;1251;73862;-74
2024/01/09 05:44:46;;;;;;;8.30;6.00;;;;;;;-13.60;100.00;101909.19;109737;1249;66055;-74
2024/01/09 05:47:14;;;;;;;10.00;7.50;;;;;;;-13.64;100.00;101913.64;109607;1256;72973;-75
2024/01/09 05:49:41;;;;;;;10.30;6.30;;;;;;;-13.69;100.00;101923.11;109602;1249;61245;-75
2024/01/09 05:52:09;;;;;;;13.20;6.00;;;;;;;-13.72;100.00;101927.66;109543;1258;58262;-75
2024/01/09 05:54:37;;;;;;;10.90;6.90;;;;;;;-13.75;100.00;101929.98;109642;1251;72659;-75
2024/01/09 05:57:04;;;;;;;20.70;8.70;;;;;;;-13.72;100.00;101927.61;109647;1249;62070;-75
2024/01/09 05:59:32;;;;;;;17.30;8.60;;;;;;;-13.69;100.00;101927.82;109674;1251;72722;-74
2024/01/09 06:02:03;;;;;;;27.90;10.90;;;;;;;-13.65;100.00;101925.36;109653;1256;61692;-76
2024/01/09 06:04:31;;;;;;;20.90;9.10;;;;;;;-13.62;100.00;101931.76;109670;1250;58777;-76
2024/01/09 06:06:59;;;;;;;14.90;6.40;;;;;;;-13.61;100.00;101945.95;109643;1251;73105;-75
2024/01/09 06:09:27;;;;;;;8.50;5.20;;;;;;;-13.63;100.00;101956.77;109680;1251;61450;-75
2024/01/09 06:11:57;;;;;;;10.40;5.30;;;;;;;-13.66;100.00;101959.23;109634;1251;72958;-75
2024/01/09 06:14:25;;;;;;;10.40;5.00;;;;;;;-13.70;100.00;101954.16;109597;1254;61499;-75
2024/01/09 06:16:52;;;;;;;10.70;5.90;;;;;;;-13.63;100.00;101952.55;109732;1250;58741;-75
2024/01/09 06:19:20;;;;;;;6.30;5.50;;;;;;;-13.56;100.00;101953.96;109526;1250;73858;-75
2024/01/09 06:21:48;;;;;;;9.00;5.50;;;;;;;-13.55;100.00;101954.86;109653;1251;62429;-75
2024/01/09 06:24:16;;;;;;;10.20;4.70;;;;;;;-13.53;100.00;101955.48;109627;1251;71389;-75
2024/01/09 06:26:43;;;;;;;9.30;6.20;;;;;;;-13.52;100.00;101954.89;109659;1256;61644;-74
2024/01/09 06:29:11;;;;;;;8.00;5.40;;;;;;;-13.52;100.00;101961.74;109663;1254;60048;-75
2024/01/09 06:31:40;;;;;;;8.30;4.50;;;;;;;-13.50;100.00;101963.04;109673;1251;73050;-75
2024/01/09 06:34:08;;;;;;;10.60;5.40;;;;;;;-13.46;100.00;101974.55;109602;1252;63658;-74
2024/01/09 06:36:36;;;;;;;10.50;5.40;;;;;;;-13.48;100.00;101979.84;109639;1250;72644;-75
2024/01/09 06:39:03;;;;;;;8.00;5.00;;;;;;;-13.47;100.00;101975.98;109587;1257;61791;-75
2024/01/09 06:41:31;;;;;;;6.20;4.40;;;;;;;-13.42;100.00;101976.83;109649;1251;60488;-74
2024/01/09 06:43:58;;;;;;;7.10;4.50;;;;;;;-13.33;100.00;101979.70;109651;1250;74408;-75
2024/01/09 06:46:27;;;;;;;9.30;5.20;;;;;;;-13.29;100.00;101970.83;109655;1250;62763;-74
2024/01/09 06:48:55;;;;;;;6.20;4.20;;;;;;;-13.25;100.00;101978.28;109642;1255;72849;-74
2024/01/09 06:51:25;;;;;;;6.60;4.00;;;;;;;-13.23;100.00;101979.27;109637;1251;61294;-75
2024/01/09 06:53:53;;;;;;;4.70;4.20;;;;;;;-13.23;100.00;101987.19;109628;1251;60001;-74
2024/01/09 06:56:23;;;;;;;6.70;3.80;;;;;;;-13.21;100.00;101994.19;109658;1251;73915;-75
2024/01/09 06:58:51;;;;;;;4.70;3.40;;;;;;;-13.20;100.00;102003.31;109666;1251;63595;-75
2024/01/09 07:01:20;;;;;;;7.20;4.10;;;;;;;-13.24;100.00;102005.09;109635;1250;72964;-75
2024/01/09 07:03:48;;;;;;;6.30;3.50;;;;;;;-13.25;100.00;102007.90;109664;1250;63035;-75
2024/01/09 07:06:16;;;;;;;4.90;3.70;;;;;;;-13.18;100.00;102003.45;109680;1251;58791;-76
2024/01/09 07:08:43;;;;;;;6.00;3.90;;;;;;;-13.06;100.00;102003.62;109692;1251;73828;-75
2024/01/09 07:11:11;;;;;;;6.20;4.60;;;;;;;-13.00;100.00;102010.86;109668;1251;63563;-75
2024/01/09 07:13:38;;;;;;;6.80;3.60;;;;;;;-12.98;100.00;102010.84;109715;1251;72508;-76
2024/01/09 07:16:06;;;;;;;8.50;4.40;;;;;;;-12.93;100.00;102010.42;109632;1256;61730;-75
2024/01/09 07:18:34;;;;;;;5.40;4.00;;;;;;;-12.87;100.00;102008.73;109671;1249;60924;-75
2024/01/09 07:21:01;;;;;;;9.60;4.60;;;;;;;-12.83;100.00;102011.14;109616;1251;73970;-75
2024/01/09 07:23:29;;;;;;;6.70;4.20;;;;;;;-12.85;100.00;102010.40;109685;1256;62485;-76
2024/01/09 07:25:58;;;;;;;5.80;4.00;;;;;;;-12.87;100.00;102008.60;109636;1256;72522;-75
2024/01/09 07:28:25;;;;;;;7.20;3.60;;;;;;;-12.89;100.00;102015.05;109769;1251;61205;-75
2024/01/09 07:30:57;;;;;;;8.10;4.50;;;;;;;-12.89;100.00;102016.06;109833;1251;61023;-75
2024/01/09 07:33:25;;;;;;;6.40;4.10;;;;;;;-12.86;100.00;102016.38;109782;1256;72823;-75
2024/01/09 07:39:28;;;;;;;6.90;4.00;;;;;;;-12.68;100.00;102028.02;103333;1287;616184;-75
2024/01/09 07:41:56;;;;;;;6.30;4.50;;;;;;;-12.61;100.00;102027.07;108698;1254;60432;-74
2024/01/09 07:44:23;;;;;;;8.20;5.10;;;;;;;-12.52;100.00;102024.05;105763;1254;60420;-76
2024/01/09 07:46:51;;;;;;;12.50;4.20;;;;;;;-12.38;100.00;102025.83;105998;1254;73374;-75
2024/01/09 07:49:17;;;;;;;10.00;5.40;;;;;;;-12.27;100.00;102031.66;105752;1257;63902;-76
2024/01/09 07:51:44;;;;;;;7.30;4.00;;;;;;;-12.21;100.00;102039.42;105599;1251;208953;-75
2024/01/09 07:54:11;;;;;;;5.40;3.70;;;;;;;-12.20;100.00;102042.00;106053;1253;60336;-75
2024/01/09 07:56:39;;;;;;;7.60;4.40;;;;;;;-12.18;100.00;102041.59;105983;1256;59331;-75
2024/01/09 07:59:06;;;;;;;7.70;4.40;;;;;;;-12.15;100.00;102044.11;105955;1254;71931;-75
2024/01/09 08:01:34;;;;;;;8.10;5.10;;;;;;;-12.13;100.00;102047.60;105958;1251;62452;-75
2024/01/09 08:04:01;;;;;;;6.10;4.00;;;;;;;-12.08;100.00;102052.79;105910;1257;73597;-74
2024/01/09 08:06:28;;;;;;;7.20;4.20;;;;;;;-12.01;100.00;102061.94;106024;1254;62628;-75
2024/01/09 08:08:57;;;;;;;10.80;4.50;;;;;;;-11.96;100.00;102068.92;106825;1250;60377;-74
2024/01/09 08:11:26;;;;;;;7.40;4.20;;;;;;;-11.89;100.00;102075.37;107044;1251;72551;-75
2024/01/09 08:13:53;;;;;;;6.10;4.60;;;;;;;-11.86;100.00;102081.40;106189;1251;64120;-75
2024/01/09 08:16:20;;;;;;;11.10;4.50;;;;;;;-11.85;100.00;102075.54;105997;1251;72893;-75
2024/01/09 08:18:47;;;;;;;11.00;4.80;;;;;;;-11.82;100.00;102074.04;106082;1254;62022;-75
2024/01/09 08:21:14;;;;;;;5.60;3.80;;;;;;;-11.75;100.00;102076.80;105955;1252;60199;-75
2024/01/09 08:23:41;;;;;;;8.50;4.60;;;;;;;-11.69;100.00;102070.54;106107;1253;72873;-74
2024/01/09 08:26:08;;;;;;;5.70;3.90;;;;;;;-11.63;100.00;102069.15;105972;1255;62867;-75
2024/01/09 08:28:35;;;;;;;7.50;4.90;;;;;;;-11.58;100.00;102062.03;106106;1251;72536;-75
2024/01/09 08:31:02;;;;;;;6.90;4.60;;;;;;;-11.54;100.00;102061.72;106114;1253;61867;-75
2024/01/09 08:33:34;;;;;;;7.60;3.90;;;;;;;-11.51;100.00;102063.23;106068;1251;60356;-76
2024/01/09 08:36:01;;;;;;;5.10;3.70;;;;;;;-11.44;100.00;102065.80;106102;1253;73138;-75
2024/01/09 08:38:29;;;;;;;7.80;4.20;;;;;;;-11.38;100.00;102063.38;106143;1253;64026;-75
2024/01/09 08:40:58;;;;;;;5.40;4.00;;;;;;;-11.33;100.00;102060.30;106082;1253;70374;-76
2024/01/09 08:43:28;;;;;;;8.60;4.90;;;;;;;-11.27;100.00;102055.38;105915;1256;61988;-75
2024/01/09 08:45:55;;;;;;;7.40;4.10;;;;;;;-11.23;100.00;102048.83;106054;1256;59682;-74
2024/01/09 08:48:24;;;;;;;6.70;4.10;;;;;;;-11.17;100.00;102034.63;106020;1251;71894;-73
2024/01/09 08:50:52;;;;;;;7.60;4.50;;;;;;;-11.04;100.00;102038.48;105950;1252;64992;-76
2024/01/09 08:53:20;;;;;;;7.70;4.50;;;;;;;-10.96;100.00;102040.25;106258;1253;71644;-75
2024/01/09 08:55:47;;;;;;;9.90;4.30;;;;;;;-10.89;100.00;102046.33;106078;1253;62033;-75
2024/01/09 08:58:13;;;;;;;7.50;4.50;;;;;;;-10.83;100.00;102045.25;105907;1257;60263;-75
2024/01/09 09:00:40;;;;;;;8.40;3.90;;;;;;;-10.77;100.00;102046.42;106011;1253;74032;-75
2024/01/09 09:03:07;;;;;;;6.30;4.40;;;;;;;-10.70;100.00;102045.58;106028;1251;62961;-76
2024/01/09 09:05:35;;;;;;;8.20;4.30;;;;;;;-10.65;100.00;102041.77;106059;1254;72657;-75
2024/01/09 09:08:04;;;;;;;12.40;6.20;;;;;;;-10.62;100.00;102039.39;105946;1253;62357;-75
2024/01/09 09:10:32;;;;;;;8.00;4.40;;;;;;;-10.57;100.00;102039.45;106149;1251;59717;-75
2024/01/09 09:13:00;;;;;;;5.80;4.20;;;;;;;-10.48;100.00;102039.23;106215;1251;73097;-75
2024/01/09 09:15:27;;;;;;;8.10;4.50;;;;;;;-10.38;100.00;102036.63;106000;1253;64145;-75
2024/01/09 09:17:54;;;;;;;8.10;5.00;;;;;;;-10.27;100.00;102038.18;106588;1253;71640;-76
2024/01/09 09:20:22;;;;;;;7.30;4.20;;;;;;;-10.15;100.00;102036.73;105902;1257;63450;-76
2024/01/09 09:22:49;;;;;;;7.40;4.50;;;;;;;-10.05;100.00;102037.67;106214;1253;60632;-74
2024/01/09 09:25:17;;;;;;;5.30;4.00;;;;;;;-9.98;100.00;102033.60;107446;1250;73049;-75
2024/01/09 09:27:46;;;;;;;7.40;4.10;;;;;;;-9.88;100.00;102025.78;106036;1262;62867;-76
2024/01/09 09:30:13;;;;;;;6.70;3.80;;;;;;;-9.75;100.00;102018.62;105914;1257;73792;-75
2024/01/09 09:32:40;;;;;;;7.50;4.10;;;;;;;-9.62;100.00;102014.94;106166;1257;63370;-75
2024/01/09 09:35:08;;;;;;;4.50;4.00;;;;;;;-9.55;100.00;102018.13;106045;1251;60253;-75
2024/01/09 09:37:34;;;;;;;5.70;3.60;;;;;;;-9.43;99.77;102014.78;106038;1250;71251;-75
2024/01/09 09:40:02;;;;;;;7.50;3.90;;;;;;;-9.33;96.64;102012.48;106063;1250;63191;-77
2024/01/09 09:42:30;;;;;;;3.80;3.20;;;;;;;-9.29;96.42;102006.40;105960;1254;72419;-76
2024/01/09 09:44:56;;;;;;;3.20;2.80;;;;;;;-9.26;93.85;102002.67;105981;1253;60571;-76
2024/01/09 09:47:23;;;;;;;4.00;3.30;;;;;;;-9.24;90.35;101999.16;105918;1256;60267;-75
2024/01/09 09:49:50;;;;;;;4.30;2.80;;;;;;;-9.20;90.12;101997.98;105975;1256;73007;-76
2024/01/09 09:52:18;;;;;;;3.90;3.20;;;;;;;-9.13;90.49;101995.91;106077;1254;63957;-75
2024/01/09 09:54:45;;;;;;;6.90;4.00;;;;;;;-9.04;90.15;101996.14;105939;1255;71785;-75
2024/01/09 09:57:14;;;;;;;6.10;4.20;;;;;;;-8.88;91.23;102001.69;105767;1256;63107;-75
2024/01/09 09:59:40;;;;;;;8.40;4.70;;;;;;;-8.73;90.76;102001.62;105981;1254;60572;-75
2024/01/09 10:02:11;;;;;;;4.60;3.30;;;;;;;-8.60;89.25;101997.42;105965;1252;73051;-74
2024/01/09 10:04:46;;;;;;;3.60;2.70;;;;;;;-8.52;88.56;101998.60;105853;1252;63757;-73
2024/01/09 10:07:16;;;;;;;6.30;3.50;;;;;;;-8.45;87.03;101997.70;105964;1251;71189;-75
2024/01/09 10:09:46;;;;;;;4.30;2.50;;;;;;;-8.39;85.93;101995.71;105969;1251;61758;-75
2024/01/09 10:12:18;;;;;;;10.30;3.60;;;;;;;-8.31;85.00;101997.20;105984;1255;60022;-76
2024/01/09 10:15:21;;;;;;;3.40;2.40;;;;;;;-8.24;84.52;101985.26;106167;1254;73093;-76
2024/01/09 10:17:49;;;;;;;4.60;3.00;;;;;;;-8.21;83.47;101984.02;105848;1261;63536;-76
2024/01/09 10:20:16;;;;;;;3.40;2.20;;;;;;;-8.18;84.16;101978.88;105622;1259;72890;-73
2024/01/09 10:22:44;;;;;;;2.50;2.30;;;;;;;-8.06;86.79;101971.34;105610;1268;62176;-76
2024/01/09 10:25:12;;;;;;;2.50;2.20;;;;;;;-7.87;88.78;101976.80;105546;1259;59622;-75
2024/01/09 10:27:41;;;;;;;3.00;2.70;;;;;;;-7.65;88.04;101970.48;105643;1260;71428;-73
2024/01/09 10:30:09;;;;;;;2.80;2.60;;;;;;;-7.46;86.88;101973.89;105613;1259;63187;-74
2024/01/09 10:32:38;;;;;;;5.20;2.30;;;;;;;-7.27;86.48;101980.83;105722;1256;71339;-75
2024/01/09 10:35:12;;;;;;;3.80;2.20;;;;;;;-7.05;83.60;101986.86;105529;1261;60592;-72
2024/01/09 10:37:38;;;;;;;3.90;2.90;;;;;;;-6.92;83.18;101981.02;105604;1260;60431;-75
2024/01/09 10:40:06;;;;;;;4.20;2.40;;;;;;;-6.85;81.19;101977.67;105626;1260;73068;-76
2024/01/09 10:42:46;;;;;;;5.60;3.00;;;;;;;-6.84;78.21;101968.36;105606;1259;65120;-75
2024/01/09 10:45:14;;;;;;;4.20;3.10;;;;;;;-6.85;78.56;101962.36;105435;1269;71990;-76
2024/01/09 10:47:41;;;;;;;3.50;2.40;;;;;;;-6.83;78.99;101962.09;105425;1261;63631;-73
2024/01/09 10:50:09;;;;;;;5.70;2.80;;;;;;;-6.82;78.20;101961.78;105523;1262;60080;-76
2024/01/09 10:52:37;;;;;;;8.50;3.60;;;;;;;-6.80;78.36;101969.16;105993;1256;71754;-73
2024/01/09 10:55:06;;;;;;;5.60;2.80;;;;;;;-6.81;78.71;101975.59;106094;1257;63842;-75
2024/01/09 10:57:33;;;;;;;5.20;2.80;;;;;;;-6.81;80.19;101972.52;106073;1257;70728;-75
2024/01/09 11:00:07;;;;;;;5.50;3.10;;;;;;;-6.78;81.93;101971.45;105954;1257;61611;-74
2024/01/09 11:02:36;;;;;;;3.70;2.90;;;;;;;-6.76;82.86;101980.00;105873;1256;59633;-74
2024/01/09 11:05:08;;;;;;;6.40;3.40;;;;;;;-6.73;83.78;101980.27;105901;1256;73146;-74
2024/01/09 11:07:35;;;;;;;4.80;2.70;;;;;;;-6.66;84.40;101988.17;106101;1263;64175;-76